sensor_id;sensor_type;location;lat;lon;timestamp;pressure;altitude;pressure_sealevel;temperature;humidity
24234;BME280;12365;43.554;1.388;2022-12-18T00:01:32;100550.31;;;9.89;62.52
24234;BME280;12365;43.554;1.388;2022-12-18T00:03:59;100551.31;;;9.91;62.79
24234;BME280;12365;43.554;1.388;2022-12-18T00:06:26;100548.72;;;9.91;62.91
24234;BME280;12365;43.554;1.388;2022-12-18T00:08:52;100541.91;;;9.93;62.72
24234;BME280;12365;43.554;1.388;2022-12-18T00:11:20;100541.78;;;9.92;62.81
24234;BME280;12365;43.554;1.388;2022-12-18T00:13:46;100542.69;;;9.92;62.91
24234;BME280;12365;43.554;1.388;2022-12-18T00:16:17;100541.78;;;9.92;62.78
24234;BME280;12365;43.554;1.388;2022-12-18T00:18:47;100533.91;;;9.90;62.82
24234;BME280;12365;43.554;1.388;2022-12-18T00:21:14;100541.91;;;9.93;62.99
24234;BME280;12365;43.554;1.388;2022-12-18T00:23:41;100532.38;;;9.94;62.84
24234;BME280;12365;43.554;1.388;2022-12-18T00:26:10;100533.25;;;9.94;62.90
24234;BME280;12365;43.554;1.388;2022-12-18T00:28:36;100529.66;;;9.92;63.14
24234;BME280;12365;43.554;1.388;2022-12-18T00:31:07;100535.88;;;9.94;63.04
24234;BME280;12365;43.554;1.388;2022-12-18T00:33:34;100541.25;;;9.97;63.20
24234;BME280;12365;43.554;1.388;2022-12-18T00:36:07;100534.25;;;9.96;63.29
24234;BME280;12365;43.554;1.388;2022-12-18T00:38:34;100541.25;;;9.97;63.09
24234;BME280;12365;43.554;1.388;2022-12-18T00:41:00;100532.47;;;9.95;62.97
24234;BME280;12365;43.554;1.388;2022-12-18T00:43:26;100526.34;;;9.95;62.90
24234;BME280;12365;43.554;1.388;2022-12-18T00:45:52;100531.53;;;9.95;63.24
24234;BME280;12365;43.554;1.388;2022-12-18T00:48:17;100535.09;;;9.95;63.02
24234;BME280;12365;43.554;1.388;2022-12-18T00:50:42;100532.47;;;9.95;63.00
24234;BME280;12365;43.554;1.388;2022-12-18T00:53:08;100532.47;;;9.95;62.99
24234;BME280;12365;43.554;1.388;2022-12-18T00:55:33;100536.75;;;9.95;63.16
24234;BME280;12365;43.554;1.388;2022-12-18T00:57:59;100540.28;;;9.95;63.17
24234;BME280;12365;43.554;1.388;2022-12-18T01:00:25;100541.91;;;9.93;63.10
24234;BME280;12365;43.554;1.388;2022-12-18T01:02:50;100557.53;;;9.93;63.13
24234;BME280;12365;43.554;1.388;2022-12-18T01:05:16;100559.25;;;9.93;63.21
24234;BME280;12365;43.554;1.388;2022-12-18T01:07:41;100566.25;;;9.94;63.56
24234;BME280;12365;43.554;1.388;2022-12-18T01:10:08;100565.34;;;9.93;63.34
24234;BME280;12365;43.554;1.388;2022-12-18T01:12:35;100570.56;;;9.93;63.53
24234;BME280;12365;43.554;1.388;2022-12-18T01:15:01;100560.66;;;9.88;63.14
24234;BME280;12365;43.554;1.388;2022-12-18T01:17:26;100580.09;;;9.93;63.37
24234;BME280;12365;43.554;1.388;2022-12-18T01:19:52;100570.38;;;9.90;63.23
24234;BME280;12365;43.554;1.388;2022-12-18T01:22:17;100582.50;;;9.90;63.47
24234;BME280;12365;43.554;1.388;2022-12-18T01:24:43;100592.13;;;9.91;63.63
24234;BME280;12365;43.554;1.388;2022-12-18T01:27:08;100597.22;;;9.89;63.58
24234;BME280;12365;43.554;1.388;2022-12-18T01:29:34;100593.63;;;9.87;63.42
24234;BME280;12365;43.554;1.388;2022-12-18T01:31:59;100588.34;;;9.86;63.36
24234;BME280;12365;43.554;1.388;2022-12-18T01:34:25;100589.03;;;9.83;63.53
24234;BME280;12365;43.554;1.388;2022-12-18T01:36:50;100600.25;;;9.82;63.56
24234;BME280;12365;43.554;1.388;2022-12-18T01:39:18;100601.88;;;9.80;63.48
24234;BME280;12365;43.554;1.388;2022-12-18T01:41:45;100608.56;;;9.76;63.63
24234;BME280;12365;43.554;1.388;2022-12-18T01:47:35;100603.69;;;9.68;63.52
24234;BME280;12365;43.554;1.388;2022-12-18T01:52:32;100601.09;;;9.54;63.74
24234;BME280;12365;43.554;1.388;2022-12-18T01:54:59;100608.50;;;9.48;63.71
24234;BME280;12365;43.554;1.388;2022-12-18T01:57:26;100615.91;;;9.42;63.83
24234;BME280;12365;43.554;1.388;2022-12-18T01:59:54;100608.56;;;9.37;63.83
24234;BME280;12365;43.554;1.388;2022-12-18T02:02:22;100613.50;;;9.32;63.58
24234;BME280;12365;43.554;1.388;2022-12-18T02:04:47;100620.13;;;9.27;63.48
24234;BME280;12365;43.554;1.388;2022-12-18T02:07:48;100623.09;;;9.20;63.56
24234;BME280;12365;43.554;1.388;2022-12-18T02:10:20;100627.78;;;9.12;63.70
24234;BME280;12365;43.554;1.388;2022-12-18T02:13:23;100637.00;;;9.07;63.88
24234;BME280;12365;43.554;1.388;2022-12-18T02:16:03;100640.88;;;9.00;63.92
24234;BME280;12365;43.554;1.388;2022-12-18T02:18:41;100639.66;;;8.95;63.88
24234;BME280;12365;43.554;1.388;2022-12-18T02:29:02;100651.81;;;8.83;63.74
24234;BME280;12365;43.554;1.388;2022-12-18T02:31:38;100658.72;;;8.82;63.79
24234;BME280;12365;43.554;1.388;2022-12-18T02:34:07;100649.91;;;8.80;63.75
24234;BME280;12365;43.554;1.388;2022-12-18T02:36:34;100656.69;;;8.78;63.84
24234;BME280;12365;43.554;1.388;2022-12-18T02:39:02;100650.53;;;8.76;63.84
24234;BME280;12365;43.554;1.388;2022-12-18T02:41:29;100652.09;;;8.74;63.80
24234;BME280;12365;43.554;1.388;2022-12-18T02:44:00;100661.50;;;8.72;63.88
24234;BME280;12365;43.554;1.388;2022-12-18T02:46:35;100655.75;;;8.64;63.69
24234;BME280;12365;43.554;1.388;2022-12-18T02:49:17;100657.13;;;8.59;63.60
24234;BME280;12365;43.554;1.388;2022-12-18T03:00:03;100659.34;;;8.30;63.85
24234;BME280;12365;43.554;1.388;2022-12-18T03:02:39;100652.91;;;8.24;63.84
24234;BME280;12365;43.554;1.388;2022-12-18T03:05:15;100649.97;;;8.20;63.90
24234;BME280;12365;43.554;1.388;2022-12-18T03:10:13;100652.97;;;8.13;63.98
24234;BME280;12365;43.554;1.388;2022-12-18T03:12:53;100644.91;;;8.10;64.05
24234;BME280;12365;43.554;1.388;2022-12-18T03:15:24;100646.41;;;8.06;63.93
24234;BME280;12365;43.554;1.388;2022-12-18T03:17:59;100634.09;;;8.03;63.83
24234;BME280;12365;43.554;1.388;2022-12-18T03:20:29;100639.19;;;8.02;63.96
24234;BME280;12365;43.554;1.388;2022-12-18T03:23:11;100635.56;;;8.00;63.88
24234;BME280;12365;43.554;1.388;2022-12-18T03:25:40;100637.16;;;7.98;63.93
24234;BME280;12365;43.554;1.388;2022-12-18T03:28:10;100628.16;;;7.93;63.87
24234;BME280;12365;43.554;1.388;2022-12-18T03:30:37;100633.09;;;7.90;64.01
24234;BME280;12365;43.554;1.388;2022-12-18T03:33:08;100620.69;;;7.86;63.96
24234;BME280;12365;43.554;1.388;2022-12-18T03:35:39;100617.75;;;7.81;63.95
24234;BME280;12365;43.554;1.388;2022-12-18T03:38:06;100616.66;;;7.77;63.89
24234;BME280;12365;43.554;1.388;2022-12-18T03:43:52;100611.13;;;7.61;63.70
24234;BME280;12365;43.554;1.388;2022-12-18T03:49:29;100614.72;;;7.51;63.80
24234;BME280;12365;43.554;1.388;2022-12-18T03:54:30;100614.50;;;7.48;63.83
24234;BME280;12365;43.554;1.388;2022-12-18T03:57:16;100616.22;;;7.48;64.04
24234;BME280;12365;43.554;1.388;2022-12-18T03:59:44;100613.47;;;7.46;63.93
24234;BME280;12365;43.554;1.388;2022-12-18T04:02:11;100607.41;;;7.46;63.97
24234;BME280;12365;43.554;1.388;2022-12-18T04:04:38;100604.25;;;7.50;64.00
24234;BME280;12365;43.554;1.388;2022-12-18T04:07:05;100594.84;;;7.52;63.82
24234;BME280;12365;43.554;1.388;2022-12-18T04:09:32;100595.78;;;7.52;64.06
24234;BME280;12365;43.554;1.388;2022-12-18T04:11:59;100589.09;;;7.56;63.91
24234;BME280;12365;43.554;1.388;2022-12-18T04:14:25;100590.91;;;7.57;64.01
24234;BME280;12365;43.554;1.388;2022-12-18T04:16:50;100594.50;;;7.59;64.15
24234;BME280;12365;43.554;1.388;2022-12-18T04:19:16;100591.91;;;7.59;64.00
24234;BME280;12365;43.554;1.388;2022-12-18T04:21:41;100594.50;;;7.59;63.83
24234;BME280;12365;43.554;1.388;2022-12-18T04:24:07;100591.25;;;7.62;64.07
24234;BME280;12365;43.554;1.388;2022-12-18T04:26:32;100593.84;;;7.62;63.87
24234;BME280;12365;43.554;1.388;2022-12-18T04:28:58;100578.25;;;7.62;63.85
24234;BME280;12365;43.554;1.388;2022-12-18T04:31:23;100586.03;;;7.62;63.98
24234;BME280;12365;43.554;1.388;2022-12-18T04:33:48;100583.44;;;7.62;63.88
24234;BME280;12365;43.554;1.388;2022-12-18T04:36:14;100587.63;;;7.59;63.77
24234;BME280;12365;43.554;1.388;2022-12-18T04:38:39;100581.44;;;7.57;63.69
24234;BME280;12365;43.554;1.388;2022-12-18T04:41:05;100584.81;;;7.56;64.04
24234;BME280;12365;43.554;1.388;2022-12-18T04:43:30;100592.72;;;7.58;63.73
24234;BME280;12365;43.554;1.388;2022-12-18T04:46:04;100595.31;;;7.58;63.92
24234;BME280;12365;43.554;1.388;2022-12-18T04:48:30;100591.03;;;7.58;63.70
24234;BME280;12365;43.554;1.388;2022-12-18T04:50:56;100591.91;;;7.59;63.86
24234;BME280;12365;43.554;1.388;2022-12-18T04:53:21;100598.34;;;7.64;64.03
24234;BME280;12365;43.554;1.388;2022-12-18T04:55:47;100598.34;;;7.64;63.95
24234;BME280;12365;43.554;1.388;2022-12-18T04:58:12;100598.34;;;7.64;63.76
24234;BME280;12365;43.554;1.388;2022-12-18T05:00:37;100612.56;;;7.69;63.97
24234;BME280;12365;43.554;1.388;2022-12-18T05:03:03;100611.00;;;7.71;63.99
24234;BME280;12365;43.554;1.388;2022-12-18T05:05:28;100619.59;;;7.70;63.76
24234;BME280;12365;43.554;1.388;2022-12-18T05:07:54;100629.16;;;7.71;63.86
24234;BME280;12365;43.554;1.388;2022-12-18T05:10:19;100635.59;;;7.76;64.04
24234;BME280;12365;43.554;1.388;2022-12-18T05:12:44;100637.63;;;7.80;64.10
24234;BME280;12365;43.554;1.388;2022-12-18T05:15:31;100637.84;;;7.84;63.84
24234;BME280;12365;43.554;1.388;2022-12-18T05:17:58;100640.66;;;7.87;64.13
24234;BME280;12365;43.554;1.388;2022-12-18T05:20:24;100650.59;;;7.92;63.99
24234;BME280;12365;43.554;1.388;2022-12-18T05:22:50;100658.72;;;7.97;64.01
24234;BME280;12365;43.554;1.388;2022-12-18T05:25:16;100657.38;;;8.02;64.08
24234;BME280;12365;43.554;1.388;2022-12-18T05:27:42;100664.47;;;8.04;63.98
24234;BME280;12365;43.554;1.388;2022-12-18T05:30:08;100667.41;;;8.09;64.00
24234;BME280;12365;43.554;1.388;2022-12-18T05:32:34;100663.44;;;8.14;63.93
24234;BME280;12365;43.554;1.388;2022-12-18T05:34:59;100658.25;;;8.14;64.13
24234;BME280;12365;43.554;1.388;2022-12-18T05:37:24;100666.94;;;8.15;63.90
24234;BME280;12365;43.554;1.388;2022-12-18T05:39:50;100666.84;;;8.13;63.86
24234;BME280;12365;43.554;1.388;2022-12-18T05:42:15;100673.84;;;8.14;63.70
24234;BME280;12365;43.554;1.388;2022-12-18T05:44:41;100672.06;;;8.13;63.84
24234;BME280;12365;43.554;1.388;2022-12-18T05:47:06;100685.03;;;8.13;63.98
24234;BME280;12365;43.554;1.388;2022-12-18T05:49:31;100674.66;;;8.13;63.89
24234;BME280;12365;43.554;1.388;2022-12-18T05:51:57;100673.97;;;8.16;63.74
24234;BME280;12365;43.554;1.388;2022-12-18T05:54:22;100673.06;;;8.15;63.81
24234;BME280;12365;43.554;1.388;2022-12-18T05:56:48;100680.75;;;8.14;63.89
24234;BME280;12365;43.554;1.388;2022-12-18T05:59:13;100676.03;;;8.08;64.13
24234;BME280;12365;43.554;1.388;2022-12-18T06:01:38;100667.19;;;8.06;64.03
24234;BME280;12365;43.554;1.388;2022-12-18T06:04:04;100664.47;;;8.04;63.97
24234;BME280;12365;43.554;1.388;2022-12-18T06:06:29;100664.38;;;8.03;63.93
24234;BME280;12365;43.554;1.388;2022-12-18T06:08:56;100661.53;;;8.00;63.82
24234;BME280;12365;43.554;1.388;2022-12-18T06:11:23;100666.75;;;8.00;63.89
24234;BME280;12365;43.554;1.388;2022-12-18T06:13:50;100668.56;;;8.01;64.10
24234;BME280;12365;43.554;1.388;2022-12-18T06:16:16;100675.56;;;8.02;64.09
24234;BME280;12365;43.554;1.388;2022-12-18T06:18:42;100680.97;;;8.05;63.73
24234;BME280;12365;43.554;1.388;2022-12-18T06:21:07;100687.44;;;8.10;63.91
24234;BME280;12365;43.554;1.388;2022-12-18T06:23:33;100686.63;;;8.11;63.96
24234;BME280;12365;43.554;1.388;2022-12-18T06:25:58;100684.84;;;8.10;63.89
24234;BME280;12365;43.554;1.388;2022-12-18T06:28:24;100683.81;;;8.08;64.03
24234;BME280;12365;43.554;1.388;2022-12-18T06:30:50;100684.84;;;8.10;63.87
24234;BME280;12365;43.554;1.388;2022-12-18T06:33:16;100673.16;;;8.05;63.97
24234;BME280;12365;43.554;1.388;2022-12-18T06:35:41;100679.63;;;8.10;63.96
24234;BME280;12365;43.554;1.388;2022-12-18T06:38:07;100681.22;;;8.08;63.90
24234;BME280;12365;43.554;1.388;2022-12-18T06:40:33;100686.97;;;8.04;63.96
24234;BME280;12365;43.554;1.388;2022-12-18T06:42:58;100687.88;;;8.04;63.92
24234;BME280;12365;43.554;1.388;2022-12-18T06:45:24;100688.88;;;8.07;64.09
24234;BME280;12365;43.554;1.388;2022-12-18T06:47:49;100687.88;;;8.04;63.98
24234;BME280;12365;43.554;1.388;2022-12-18T06:50:15;100683.25;;;8.00;63.94
24234;BME280;12365;43.554;1.388;2022-12-18T06:52:40;100692.72;;;8.00;63.90
24234;BME280;12365;43.554;1.388;2022-12-18T06:55:09;100688.19;;;7.97;64.20
24234;BME280;12365;43.554;1.388;2022-12-18T06:57:35;100676.69;;;7.94;63.90
24234;BME280;12365;43.554;1.388;2022-12-18T07:00:03;100668.78;;;7.92;64.06
24234;BME280;12365;43.554;1.388;2022-12-18T07:02:29;100669.47;;;7.90;64.01
24234;BME280;12365;43.554;1.388;2022-12-18T07:04:54;100678.19;;;7.90;63.98
24234;BME280;12365;43.554;1.388;2022-12-18T07:07:20;100680.53;;;7.87;64.13
24234;BME280;12365;43.554;1.388;2022-12-18T07:09:45;100671.75;;;7.85;64.04
24234;BME280;12365;43.554;1.388;2022-12-18T07:12:10;100675.13;;;7.84;64.00
24234;BME280;12365;43.554;1.388;2022-12-18T07:14:36;100672.44;;;7.82;63.99
24234;BME280;12365;43.554;1.388;2022-12-18T07:17:01;100668.22;;;7.85;63.87
24234;BME280;12365;43.554;1.388;2022-12-18T07:19:27;100658.63;;;7.84;64.09
24234;BME280;12365;43.554;1.388;2022-12-18T07:21:52;100647.69;;;7.88;63.90
24234;BME280;12365;43.554;1.388;2022-12-18T07:24:18;100651.06;;;7.98;64.01
24234;BME280;12365;43.554;1.388;2022-12-18T07:26:46;100655.78;;;8.04;64.08
24234;BME280;12365;43.554;1.388;2022-12-18T07:29:11;100661.31;;;8.09;64.09
24234;BME280;12365;43.554;1.388;2022-12-18T07:31:37;100665.56;;;8.20;64.03
24234;BME280;12365;43.554;1.388;2022-12-18T07:34:02;100670.34;;;8.25;64.03
24234;BME280;12365;43.554;1.388;2022-12-18T07:36:28;100672.34;;;8.30;63.92
24234;BME280;12365;43.554;1.388;2022-12-18T07:38:53;100679.66;;;8.35;64.10
24234;BME280;12365;43.554;1.388;2022-12-18T07:41:19;100657.78;;;8.43;63.98
24234;BME280;12365;43.554;1.388;2022-12-18T07:43:46;100654.00;;;8.52;63.99
24234;BME280;12365;43.554;1.388;2022-12-18T07:46:12;100661.31;;;8.57;63.97
24234;BME280;12365;43.554;1.388;2022-12-18T07:48:44;100670.00;;;8.70;64.17
24234;BME280;12365;43.554;1.388;2022-12-18T07:51:10;100664.50;;;8.78;63.84
24234;BME280;12365;43.554;1.388;2022-12-18T07:53:36;100667.63;;;8.86;63.94
24234;BME280;12365;43.554;1.388;2022-12-18T07:56:04;100669.09;;;8.94;64.04
24234;BME280;12365;43.554;1.388;2022-12-18T07:58:31;100671.63;;;9.06;63.82
24234;BME280;12365;43.554;1.388;2022-12-18T08:01:05;100677.34;;;9.14;64.08
24234;BME280;12365;43.554;1.388;2022-12-18T08:03:31;100687.00;;;9.28;63.90
24234;BME280;12365;43.554;1.388;2022-12-18T08:06:05;100686.13;;;9.41;63.79
24234;BME280;12365;43.554;1.388;2022-12-18T08:08:32;100687.84;;;9.53;63.53
24234;BME280;12365;43.554;1.388;2022-12-18T08:10:58;100683.44;;;9.66;63.68
24234;BME280;12365;43.554;1.388;2022-12-18T08:13:24;100686.06;;;9.79;63.59
24234;BME280;12365;43.554;1.388;2022-12-18T08:16:04;100674.63;;;9.90;63.57
24234;BME280;12365;43.554;1.388;2022-12-18T08:18:32;100680.84;;;10.06;63.53
24234;BME280;12365;43.554;1.388;2022-12-18T08:20:57;100682.53;;;10.18;63.19
24234;BME280;12365;43.554;1.388;2022-12-18T08:23:23;100685.03;;;10.30;63.18
24234;BME280;12365;43.554;1.388;2022-12-18T08:25:48;100681.59;;;10.45;63.31
24234;BME280;12365;43.554;1.388;2022-12-18T08:28:16;100682.25;;;10.55;63.14
24234;BME280;12365;43.554;1.388;2022-12-18T08:30:41;100689.97;;;10.67;63.05
24234;BME280;12365;43.554;1.388;2022-12-18T08:33:07;100683.69;;;10.78;63.06
24234;BME280;12365;43.554;1.388;2022-12-18T08:35:36;100678.84;;;10.84;62.96
24234;BME280;12365;43.554;1.388;2022-12-18T08:38:02;100660.66;;;10.86;62.77
24234;BME280;12365;43.554;1.388;2022-12-18T08:40:28;100659.94;;;10.89;62.80
24234;BME280;12365;43.554;1.388;2022-12-18T08:42:53;100662.34;;;10.99;62.80
24234;BME280;12365;43.554;1.388;2022-12-18T08:45:37;100665.94;;;11.16;62.61
24234;BME280;12365;43.554;1.388;2022-12-18T08:48:03;100659.56;;;11.25;62.35
24234;BME280;12365;43.554;1.388;2022-12-18T08:50:28;100661.06;;;11.37;62.61
24234;BME280;12365;43.554;1.388;2022-12-18T08:52:53;100656.56;;;11.49;62.24
24234;BME280;12365;43.554;1.388;2022-12-18T08:55:19;100674.41;;;11.56;62.32
24234;BME280;12365;43.554;1.388;2022-12-18T08:57:48;100667.03;;;11.64;62.21
24234;BME280;12365;43.554;1.388;2022-12-18T09:00:14;100669.28;;;11.73;61.97
24234;BME280;12365;43.554;1.388;2022-12-18T09:02:40;100668.63;;;11.77;61.81
24234;BME280;12365;43.554;1.388;2022-12-18T09:05:06;100685.59;;;11.83;61.92
24234;BME280;12365;43.554;1.388;2022-12-18T09:07:31;100678.22;;;11.91;61.92
24234;BME280;12365;43.554;1.388;2022-12-18T09:09:56;100679.53;;;11.99;61.56
24234;BME280;12365;43.554;1.388;2022-12-18T09:12:22;100681.78;;;12.08;61.64
24234;BME280;12365;43.554;1.388;2022-12-18T09:14:47;100681.38;;;12.17;61.51
24234;BME280;12365;43.554;1.388;2022-12-18T09:17:14;100677.63;;;12.28;61.51
24234;BME280;12365;43.554;1.388;2022-12-18T09:19:39;100683.41;;;12.37;61.23
24234;BME280;12365;43.554;1.388;2022-12-18T09:22:05;100683.66;;;12.42;61.12
24234;BME280;12365;43.554;1.388;2022-12-18T09:24:30;100686.53;;;12.46;61.21
24234;BME280;12365;43.554;1.388;2022-12-18T09:26:56;100689.41;;;12.51;61.09
24234;BME280;12365;43.554;1.388;2022-12-18T09:29:21;100687.59;;;12.50;60.83
24234;BME280;12365;43.554;1.388;2022-12-18T09:31:47;100681.72;;;12.54;60.63
24234;BME280;12365;43.554;1.388;2022-12-18T09:34:12;100680.31;;;12.61;60.72
24234;BME280;12365;43.554;1.388;2022-12-18T09:36:38;100673.59;;;12.66;60.65
24234;BME280;12365;43.554;1.388;2022-12-18T09:39:03;100679.19;;;12.72;60.65
24234;BME280;12365;43.554;1.388;2022-12-18T09:44:04;100676.25;;;12.82;60.37
24234;BME280;12365;43.554;1.388;2022-12-18T09:46:37;100667.91;;;12.89;60.20
24234;BME280;12365;43.554;1.388;2022-12-18T09:49:11;100663.81;;;12.94;60.29
24234;BME280;12365;43.554;1.388;2022-12-18T09:54:32;100671.78;;;13.14;60.04
24234;BME280;12365;43.554;1.388;2022-12-18T09:56:58;100649.28;;;13.17;59.77
24234;BME280;12365;43.554;1.388;2022-12-18T09:59:29;100664.25;;;13.20;59.62
24234;BME280;12365;43.554;1.388;2022-12-18T10:01:56;100664.84;;;13.31;59.67
24234;BME280;12365;43.554;1.388;2022-12-18T10:04:21;100665.31;;;13.40;59.58
24234;BME280;12365;43.554;1.388;2022-12-18T10:07:07;100668.09;;;13.43;59.55
24234;BME280;12365;43.554;1.388;2022-12-18T10:12:36;100678.44;;;13.58;59.28
24234;BME280;12365;43.554;1.388;2022-12-18T10:17:58;100683.56;;;13.73;59.02
24234;BME280;12365;43.554;1.388;2022-12-18T10:20:33;100673.50;;;13.82;58.88
24234;BME280;12365;43.554;1.388;2022-12-18T10:28:25;100684.00;;;14.00;58.36
24234;BME280;12365;43.554;1.388;2022-12-18T10:30:52;100693.59;;;13.99;58.15
24234;BME280;12365;43.554;1.388;2022-12-18T10:33:20;100687.47;;;13.99;58.24
24234;BME280;12365;43.554;1.388;2022-12-18T10:35:48;100687.75;;;14.05;58.11
24234;BME280;12365;43.554;1.388;2022-12-18T10:40:49;100681.44;;;14.19;57.86
24234;BME280;12365;43.554;1.388;2022-12-18T10:43:19;100675.44;;;14.22;57.71
24234;BME280;12365;43.554;1.388;2022-12-18T10:48:23;100683.41;;;14.23;57.40
24234;BME280;12365;43.554;1.388;2022-12-18T10:50:50;100706.41;;;14.29;57.47
24234;BME280;12365;43.554;1.388;2022-12-18T10:53:23;100689.91;;;14.31;57.10
24234;BME280;12365;43.554;1.388;2022-12-18T10:55:50;100683.81;;;14.32;57.10
24234;BME280;12365;43.554;1.388;2022-12-18T10:58:37;100681.72;;;14.43;57.09
24234;BME280;12365;43.554;1.388;2022-12-18T11:01:17;100670.47;;;14.46;56.78
24234;BME280;12365;43.554;1.388;2022-12-18T11:06:12;100663.72;;;14.51;56.61
24234;BME280;12365;43.554;1.388;2022-12-18T11:08:39;100659.25;;;14.50;56.53
24234;BME280;12365;43.554;1.388;2022-12-18T11:11:14;100664.09;;;14.59;56.37
24234;BME280;12365;43.554;1.388;2022-12-18T11:13:50;100668.00;;;14.68;56.48
24234;BME280;12365;43.554;1.388;2022-12-18T11:16:19;100677.16;;;14.77;56.41
24234;BME280;12365;43.554;1.388;2022-12-18T11:18:45;100673.56;;;14.74;56.32
24234;BME280;12365;43.554;1.388;2022-12-18T11:21:12;100672.72;;;14.76;56.26
24234;BME280;12365;43.554;1.388;2022-12-18T11:23:47;100654.41;;;14.77;56.22
24234;BME280;12365;43.554;1.388;2022-12-18T11:26:14;100639.66;;;14.81;55.91
24234;BME280;12365;43.554;1.388;2022-12-18T11:33:34;100604.84;;;15.06;55.69
24234;BME280;12365;43.554;1.388;2022-12-18T11:36:02;100617.09;;;15.05;55.55
24234;BME280;12365;43.554;1.388;2022-12-18T11:38:40;100616.13;;;15.03;55.35
24234;BME280;12365;43.554;1.388;2022-12-18T11:43:50;100613.38;;;15.00;55.09
24234;BME280;12365;43.554;1.388;2022-12-18T11:46:32;100619.66;;;15.04;55.11
24234;BME280;12365;43.554;1.388;2022-12-18T11:49:11;100607.56;;;15.07;55.31
24234;BME280;12365;43.554;1.388;2022-12-18T11:52:07;100617.56;;;15.16;54.93
24234;BME280;12365;43.554;1.388;2022-12-18T11:54:29;100614.28;;;15.22;54.86
24234;BME280;12365;43.554;1.388;2022-12-18T12:07:58;100615.97;;;15.41;54.17
24234;BME280;12365;43.554;1.388;2022-12-18T12:13:16;100609.06;;;15.43;54.11
24234;BME280;12365;43.554;1.388;2022-12-18T12:21:39;100614.13;;;15.38;53.82
24234;BME280;12365;43.554;1.388;2022-12-18T12:26:54;100602.06;;;15.43;53.98
24234;BME280;12365;43.554;1.388;2022-12-18T12:29:50;100597.19;;;15.52;53.84
24234;BME280;12365;43.554;1.388;2022-12-18T12:38:08;100587.25;;;15.45;53.89
24234;BME280;12365;43.554;1.388;2022-12-18T12:40:41;100596.88;;;15.45;53.83
24234;BME280;12365;43.554;1.388;2022-12-18T12:45:59;100591.22;;;15.14;53.66
24234;BME280;12365;43.554;1.388;2022-12-18T12:48:33;100597.63;;;15.00;54.00
24234;BME280;12365;43.554;1.388;2022-12-18T12:51:03;100598.06;;;14.90;54.15
24234;BME280;12365;43.554;1.388;2022-12-18T12:53:35;100590.59;;;14.80;54.31
24234;BME280;12365;43.554;1.388;2022-12-18T12:56:03;100587.44;;;14.67;54.24
24234;BME280;12365;43.554;1.388;2022-12-18T13:03:53;100586.56;;;14.49;54.66
24234;BME280;12365;43.554;1.388;2022-12-18T13:08:57;100583.69;;;14.62;54.59
24234;BME280;12365;43.554;1.388;2022-12-18T13:14:27;100600.34;;;14.63;54.58
24234;BME280;12365;43.554;1.388;2022-12-18T13:17:23;100616.88;;;14.60;54.66
24234;BME280;12365;43.554;1.388;2022-12-18T13:20:04;100611.63;;;14.60;54.73
24234;BME280;12365;43.554;1.388;2022-12-18T13:22:51;100594.28;;;14.64;54.59
24234;BME280;12365;43.554;1.388;2022-12-18T13:25:35;100593.44;;;14.65;54.84
24234;BME280;12365;43.554;1.388;2022-12-18T13:34:26;100590.72;;;14.63;55.05
24234;BME280;12365;43.554;1.388;2022-12-18T13:36:53;100587.44;;;14.67;54.99
24234;BME280;12365;43.554;1.388;2022-12-18T13:41:49;100604.41;;;14.76;55.01
24234;BME280;12365;43.554;1.388;2022-12-18T13:44:35;100589.53;;;14.76;55.15
24234;BME280;12365;43.554;1.388;2022-12-18T13:47:02;100589.63;;;14.78;55.17
24234;BME280;12365;43.554;1.388;2022-12-18T13:49:38;100600.25;;;14.81;55.17
24234;BME280;12365;43.554;1.388;2022-12-18T13:52:22;100592.59;;;14.85;55.01
24234;BME280;12365;43.554;1.388;2022-12-18T13:54:53;100591.69;;;14.85;55.14
24234;BME280;12365;43.554;1.388;2022-12-18T13:59:53;100590.25;;;14.91;55.20
24234;BME280;12365;43.554;1.388;2022-12-18T14:02:23;100573.44;;;14.88;55.20
24234;BME280;12365;43.554;1.388;2022-12-18T14:04:50;100572.47;;;14.86;55.35
24234;BME280;12365;43.554;1.388;2022-12-18T14:07:24;100571.38;;;14.81;55.34
24234;BME280;12365;43.554;1.388;2022-12-18T14:09:59;100584.38;;;14.78;55.49
24234;BME280;12365;43.554;1.388;2022-12-18T14:12:33;100583.34;;;14.74;55.52
24234;BME280;12365;43.554;1.388;2022-12-18T14:17:52;100575.41;;;14.72;55.73
24234;BME280;12365;43.554;1.388;2022-12-18T14:20:19;100582.44;;;14.73;55.78
24234;BME280;12365;43.554;1.388;2022-12-18T14:22:46;100579.88;;;14.75;55.69
24234;BME280;12365;43.554;1.388;2022-12-18T14:27:43;100564.13;;;14.75;55.82
24234;BME280;12365;43.554;1.388;2022-12-18T14:33:04;100557.84;;;14.71;55.89
24234;BME280;12365;43.554;1.388;2022-12-18T14:35:31;100556.88;;;14.69;56.01
24234;BME280;12365;43.554;1.388;2022-12-18T14:38:33;100561.06;;;14.66;55.99
24234;BME280;12365;43.554;1.388;2022-12-18T14:43:23;100569.81;;;14.65;56.03
24234;BME280;12365;43.554;1.388;2022-12-18T14:45:49;100584.66;;;14.64;56.15
24234;BME280;12365;43.554;1.388;2022-12-18T14:48:17;100575.91;;;14.64;56.26
24234;BME280;12365;43.554;1.388;2022-12-18T14:50:44;100581.06;;;14.62;56.22
24234;BME280;12365;43.554;1.388;2022-12-18T14:53:31;100586.19;;;14.59;56.52
24234;BME280;12365;43.554;1.388;2022-12-18T14:55:58;100583.44;;;14.56;56.42
24234;BME280;12365;43.554;1.388;2022-12-18T14:58:23;100591.22;;;14.55;56.61
24234;BME280;12365;43.554;1.388;2022-12-18T15:00:49;100588.53;;;14.53;56.63
24234;BME280;12365;43.554;1.388;2022-12-18T15:03:20;100586.56;;;14.49;56.61
24234;BME280;12365;43.554;1.388;2022-12-18T15:05:46;100585.69;;;14.48;56.74
24234;BME280;12365;43.554;1.388;2022-12-18T15:08:35;100586.50;;;14.47;56.87
24234;BME280;12365;43.554;1.388;2022-12-18T15:11:01;100582.97;;;14.47;56.88
24234;BME280;12365;43.554;1.388;2022-12-18T15:13:26;100579.38;;;14.45;56.92